aviador You're here:

RKSI Decoded Metar

CHAJANG NI in KOREA
Report Time2017-11-23 21:30:00
UTC Time2017-11-23 22:05:57
Flight Rules vfr VFR
Wind030° at 02 kt
W.Decomp.*RWY 34: 1.1 kt HW 1.7 kt RCW
RWY 33: 0.7 kt HW 1.9 kt RCW
W.Rank030° ranks 25
Current wind is below 030° avg. (5.2)
Visibility9999 m
Phenomena:N/A
Clouds:Broken 030 Hf
Broken 100 Hf
Expected CloudBase > 1,200 ft AGL from Temp-Dew spread
Ceiling3,000 ft
Temp00°C (ISA -15)
Dew Point-3°C (80% RH)
AAT-3.1°C
QNH1022 hPa
Density Alt-2,044 ft
Elevation23 ft
Report Wrong Elevation
Raw Report
RKSI 232130Z 03002KT 9999 BKN030 BKN100 00/M03 Q1022 NOSIG=

Extra information for RKSI:More info

Metar Taf Metar & Taf Last 4 Metars F.Rules Stats Wind Profile Meteogram Temp Stats Airport Information Weather charts Add Link Nearby VenuesMetar ALERT Operation Metar Decoded Social comments